Aviation Digital Data Service (ADDS)

Output produced by METARs form (2110 UTC 17 November 2018)
found at http://www.aviationweather.gov/metar/data/
 
METAR text: MDCY 172100Z 06008KT 9999 FEW020 29/25 Q1014
Conditions at: MDCY (EL CATEY INTL , DO) observed 2100 UTC 17 November 2018
Temperature: 29.0°C (84°F)
Dewpoint: 25.0°C (77°F) [RH = 79%]
Pressure (altimeter): 29.94 inches Hg (1014.0 mb)
Winds: from the ENE (60 degrees) at 9 MPH (8 knots; 4.1 m/s)
Visibility: 6 or more miles (10+ km)
Ceiling: at least 12,000 feet AGL
Clouds: few clouds at 2000 feet AGL
Weather: no significant weather observed at this time

Forecast for: MDCY (EL CATEY INTL , DO)
Text: TAF MDCY 171600Z 1718/1818 04010KT 9999 SCT020
Forecast period: 1800 UTC 17 November 2018 to 1800 UTC 18 November 2018
Forecast type: FROM: standard forecast or significant change
Winds: from the NE (40 degrees) at 12 MPH (10 knots; 5.1 m/s)
Visibility: 6 or more miles 10+ km)
Ceiling: at least 12,000 feet AGL
Clouds: scattered clouds at 2000 feet AGL
Weather: no significant weather forecast for this period
Text: PROB30 1722/1804 8000-SH FEW016CB SCT018
Forecast period: 2200 UTC 17 November 2018 to 0400 UTC 18 November 2018
Forecast type: PROBABLE: 30 percent likelihood of the following during this time
Visibility: missing
Ceiling: at least 12,000 feet AGL
Clouds: few clouds at 1600 feet AGL
scattered clouds at 1800 feet AGL
Weather: SH  (showers)